sensor_id;sensor_type;location;lat;lon;timestamp;P1;durP1;ratioP1;P2;durP2;ratioP2
69256;SDS011;56376;53.356;-1.748;2024-03-06T00:01:42;8.67;;;6.80;;
69256;SDS011;56376;53.356;-1.748;2024-03-06T00:04:08;9.50;;;7.17;;
69256;SDS011;56376;53.356;-1.748;2024-03-06T00:06:33;10.13;;;7.87;;
69256;SDS011;56376;53.356;-1.748;2024-03-06T00:08:59;11.93;;;7.90;;
69256;SDS011;56376;53.356;-1.748;2024-03-06T00:11:27;10.50;;;7.50;;
69256;SDS011;56376;53.356;-1.748;2024-03-06T00:13:53;9.60;;;7.00;;
69256;SDS011;56376;53.356;-1.748;2024-03-06T00:16:19;10.20;;;7.30;;
69256;SDS011;56376;53.356;-1.748;2024-03-06T00:18:45;9.20;;;7.23;;
69256;SDS011;56376;53.356;-1.748;2024-03-06T00:21:11;9.27;;;6.17;;
69256;SDS011;56376;53.356;-1.748;2024-03-06T00:23:37;9.53;;;7.20;;
69256;SDS011;56376;53.356;-1.748;2024-03-06T00:26:03;7.27;;;6.10;;
69256;SDS011;56376;53.356;-1.748;2024-03-06T00:28:29;8.87;;;6.53;;
69256;SDS011;56376;53.356;-1.748;2024-03-06T00:30:55;8.33;;;6.23;;
69256;SDS011;56376;53.356;-1.748;2024-03-06T00:33:23;6.77;;;5.57;;
69256;SDS011;56376;53.356;-1.748;2024-03-06T00:35:49;9.23;;;6.63;;
69256;SDS011;56376;53.356;-1.748;2024-03-06T00:38:15;11.27;;;6.90;;
69256;SDS011;56376;53.356;-1.748;2024-03-06T00:40:40;14.00;;;8.57;;
69256;SDS011;56376;53.356;-1.748;2024-03-06T00:43:07;20.07;;;9.53;;
69256;SDS011;56376;53.356;-1.748;2024-03-06T00:45:33;13.50;;;9.07;;
69256;SDS011;56376;53.356;-1.748;2024-03-06T00:47:58;15.83;;;9.27;;
69256;SDS011;56376;53.356;-1.748;2024-03-06T00:50:23;14.07;;;8.47;;
69256;SDS011;56376;53.356;-1.748;2024-03-06T00:52:49;11.57;;;8.13;;
69256;SDS011;56376;53.356;-1.748;2024-03-06T00:55:15;13.43;;;8.17;;
69256;SDS011;56376;53.356;-1.748;2024-03-06T00:57:41;11.10;;;7.43;;
69256;SDS011;56376;53.356;-1.748;2024-03-06T01:00:06;10.60;;;7.80;;
69256;SDS011;56376;53.356;-1.748;2024-03-06T01:02:38;11.00;;;8.03;;
69256;SDS011;56376;53.356;-1.748;2024-03-06T01:05:06;9.33;;;7.53;;
69256;SDS011;56376;53.356;-1.748;2024-03-06T01:07:32;9.57;;;6.97;;
69256;SDS011;56376;53.356;-1.748;2024-03-06T01:09:59;8.23;;;6.33;;
69256;SDS011;56376;53.356;-1.748;2024-03-06T01:12:26;8.93;;;6.00;;
69256;SDS011;56376;53.356;-1.748;2024-03-06T01:14:53;9.13;;;6.90;;
69256;SDS011;56376;53.356;-1.748;2024-03-06T01:17:18;10.53;;;8.43;;
69256;SDS011;56376;53.356;-1.748;2024-03-06T01:19:44;12.13;;;8.70;;
69256;SDS011;56376;53.356;-1.748;2024-03-06T01:22:10;9.93;;;7.83;;
69256;SDS011;56376;53.356;-1.748;2024-03-06T01:24:36;11.63;;;8.17;;
69256;SDS011;56376;53.356;-1.748;2024-03-06T01:27:01;8.13;;;7.27;;
69256;SDS011;56376;53.356;-1.748;2024-03-06T01:29:31;11.60;;;8.67;;
69256;SDS011;56376;53.356;-1.748;2024-03-06T01:31:57;10.47;;;8.03;;
69256;SDS011;56376;53.356;-1.748;2024-03-06T01:34:24;10.07;;;7.53;;
69256;SDS011;56376;53.356;-1.748;2024-03-06T01:36:50;8.90;;;6.50;;
69256;SDS011;56376;53.356;-1.748;2024-03-06T01:39:16;7.80;;;7.00;;
69256;SDS011;56376;53.356;-1.748;2024-03-06T01:41:48;9.17;;;7.23;;
69256;SDS011;56376;53.356;-1.748;2024-03-06T01:44:16;10.33;;;7.83;;
69256;SDS011;56376;53.356;-1.748;2024-03-06T01:46:43;9.97;;;7.57;;
69256;SDS011;56376;53.356;-1.748;2024-03-06T01:49:09;11.50;;;8.27;;
69256;SDS011;56376;53.356;-1.748;2024-03-06T01:51:38;9.10;;;7.27;;
69256;SDS011;56376;53.356;-1.748;2024-03-06T01:54:04;9.50;;;7.53;;
69256;SDS011;56376;53.356;-1.748;2024-03-06T01:56:30;9.57;;;7.67;;
69256;SDS011;56376;53.356;-1.748;2024-03-06T01:58:59;9.53;;;6.93;;
69256;SDS011;56376;53.356;-1.748;2024-03-06T02:01:25;10.30;;;7.97;;
69256;SDS011;56376;53.356;-1.748;2024-03-06T02:03:51;9.53;;;6.57;;
69256;SDS011;56376;53.356;-1.748;2024-03-06T02:06:17;9.50;;;6.97;;
69256;SDS011;56376;53.356;-1.748;2024-03-06T02:08:45;8.40;;;6.70;;
69256;SDS011;56376;53.356;-1.748;2024-03-06T02:11:11;11.67;;;8.33;;
69256;SDS011;56376;53.356;-1.748;2024-03-06T02:13:39;11.20;;;7.90;;
69256;SDS011;56376;53.356;-1.748;2024-03-06T02:16:05;11.27;;;8.67;;
69256;SDS011;56376;53.356;-1.748;2024-03-06T02:18:31;10.73;;;8.23;;
69256;SDS011;56376;53.356;-1.748;2024-03-06T02:20:56;12.03;;;8.20;;
69256;SDS011;56376;53.356;-1.748;2024-03-06T02:23:24;10.83;;;7.97;;
69256;SDS011;56376;53.356;-1.748;2024-03-06T02:25:50;9.83;;;7.07;;
69256;SDS011;56376;53.356;-1.748;2024-03-06T02:28:16;9.83;;;7.87;;
69256;SDS011;56376;53.356;-1.748;2024-03-06T02:30:42;10.87;;;8.20;;
69256;SDS011;56376;53.356;-1.748;2024-03-06T02:33:08;8.93;;;7.20;;
69256;SDS011;56376;53.356;-1.748;2024-03-06T02:35:34;8.37;;;7.10;;
69256;SDS011;56376;53.356;-1.748;2024-03-06T02:38:05;12.03;;;8.70;;
69256;SDS011;56376;53.356;-1.748;2024-03-06T02:40:31;13.47;;;8.27;;
69256;SDS011;56376;53.356;-1.748;2024-03-06T02:42:57;11.83;;;9.10;;
69256;SDS011;56376;53.356;-1.748;2024-03-06T02:45:22;11.80;;;8.43;;
69256;SDS011;56376;53.356;-1.748;2024-03-06T02:47:48;12.47;;;8.53;;
69256;SDS011;56376;53.356;-1.748;2024-03-06T02:50:13;12.93;;;9.00;;
69256;SDS011;56376;53.356;-1.748;2024-03-06T02:52:39;15.00;;;9.87;;
69256;SDS011;56376;53.356;-1.748;2024-03-06T02:55:05;11.40;;;8.27;;
69256;SDS011;56376;53.356;-1.748;2024-03-06T02:57:31;11.80;;;8.27;;
69256;SDS011;56376;53.356;-1.748;2024-03-06T02:59:57;15.37;;;9.23;;
69256;SDS011;56376;53.356;-1.748;2024-03-06T03:02:23;14.63;;;9.47;;
69256;SDS011;56376;53.356;-1.748;2024-03-06T03:04:50;13.10;;;8.77;;
69256;SDS011;56376;53.356;-1.748;2024-03-06T03:07:19;15.00;;;9.93;;
69256;SDS011;56376;53.356;-1.748;2024-03-06T03:09:45;17.27;;;11.60;;
69256;SDS011;56376;53.356;-1.748;2024-03-06T03:12:10;15.93;;;10.00;;
69256;SDS011;56376;53.356;-1.748;2024-03-06T03:14:37;14.67;;;10.17;;
69256;SDS011;56376;53.356;-1.748;2024-03-06T03:17:02;16.50;;;11.60;;
69256;SDS011;56376;53.356;-1.748;2024-03-06T03:19:30;15.90;;;11.57;;
69256;SDS011;56376;53.356;-1.748;2024-03-06T03:21:56;16.43;;;11.77;;
69256;SDS011;56376;53.356;-1.748;2024-03-06T03:24:23;18.73;;;12.90;;
69256;SDS011;56376;53.356;-1.748;2024-03-06T03:26:51;16.97;;;12.70;;
69256;SDS011;56376;53.356;-1.748;2024-03-06T03:29:16;19.10;;;12.10;;
69256;SDS011;56376;53.356;-1.748;2024-03-06T03:31:42;17.30;;;12.50;;
69256;SDS011;56376;53.356;-1.748;2024-03-06T03:34:07;15.30;;;11.47;;
69256;SDS011;56376;53.356;-1.748;2024-03-06T03:36:33;16.27;;;11.97;;
69256;SDS011;56376;53.356;-1.748;2024-03-06T03:38:59;16.37;;;11.37;;
69256;SDS011;56376;53.356;-1.748;2024-03-06T03:41:25;18.43;;;12.90;;
69256;SDS011;56376;53.356;-1.748;2024-03-06T03:43:50;19.93;;;13.03;;
69256;SDS011;56376;53.356;-1.748;2024-03-06T03:46:16;16.60;;;12.73;;
69256;SDS011;56376;53.356;-1.748;2024-03-06T03:48:41;17.73;;;12.73;;
69256;SDS011;56376;53.356;-1.748;2024-03-06T03:51:08;19.00;;;13.40;;
69256;SDS011;56376;53.356;-1.748;2024-03-06T03:53:34;17.70;;;12.23;;
69256;SDS011;56376;53.356;-1.748;2024-03-06T03:56:00;16.43;;;12.53;;
69256;SDS011;56376;53.356;-1.748;2024-03-06T03:58:26;17.53;;;12.70;;
69256;SDS011;56376;53.356;-1.748;2024-03-06T04:00:52;15.40;;;12.30;;
69256;SDS011;56376;53.356;-1.748;2024-03-06T04:03:21;16.13;;;12.43;;
69256;SDS011;56376;53.356;-1.748;2024-03-06T04:05:47;17.77;;;13.30;;
69256;SDS011;56376;53.356;-1.748;2024-03-06T04:08:13;15.70;;;11.43;;
69256;SDS011;56376;53.356;-1.748;2024-03-06T04:10:39;15.27;;;11.50;;
69256;SDS011;56376;53.356;-1.748;2024-03-06T04:13:05;15.30;;;11.47;;
69256;SDS011;56376;53.356;-1.748;2024-03-06T04:15:31;14.57;;;11.30;;
69256;SDS011;56376;53.356;-1.748;2024-03-06T04:17:57;15.83;;;11.73;;
69256;SDS011;56376;53.356;-1.748;2024-03-06T04:20:22;14.20;;;11.70;;
69256;SDS011;56376;53.356;-1.748;2024-03-06T04:22:48;14.33;;;10.93;;
69256;SDS011;56376;53.356;-1.748;2024-03-06T04:25:15;12.97;;;10.07;;
69256;SDS011;56376;53.356;-1.748;2024-03-06T04:27:41;14.30;;;10.90;;
69256;SDS011;56376;53.356;-1.748;2024-03-06T04:30:07;15.97;;;11.67;;
69256;SDS011;56376;53.356;-1.748;2024-03-06T04:32:33;14.30;;;11.30;;
69256;SDS011;56376;53.356;-1.748;2024-03-06T04:34:58;15.57;;;11.80;;
69256;SDS011;56376;53.356;-1.748;2024-03-06T04:37:24;14.40;;;10.90;;
69256;SDS011;56376;53.356;-1.748;2024-03-06T04:39:51;13.03;;;9.97;;
69256;SDS011;56376;53.356;-1.748;2024-03-06T04:42:17;13.90;;;10.80;;
69256;SDS011;56376;53.356;-1.748;2024-03-06T04:44:44;13.97;;;10.67;;
69256;SDS011;56376;53.356;-1.748;2024-03-06T04:47:10;13.83;;;10.93;;
69256;SDS011;56376;53.356;-1.748;2024-03-06T04:49:36;15.97;;;11.13;;
69256;SDS011;56376;53.356;-1.748;2024-03-06T04:52:01;17.77;;;12.63;;
69256;SDS011;56376;53.356;-1.748;2024-03-06T04:54:28;16.20;;;12.03;;
69256;SDS011;56376;53.356;-1.748;2024-03-06T04:56:54;16.87;;;11.40;;
69256;SDS011;56376;53.356;-1.748;2024-03-06T04:59:20;16.67;;;11.20;;
69256;SDS011;56376;53.356;-1.748;2024-03-06T05:01:45;17.20;;;11.83;;
69256;SDS011;56376;53.356;-1.748;2024-03-06T05:04:11;13.43;;;10.60;;
69256;SDS011;56376;53.356;-1.748;2024-03-06T05:06:37;14.53;;;10.73;;
69256;SDS011;56376;53.356;-1.748;2024-03-06T05:09:03;16.17;;;11.10;;
69256;SDS011;56376;53.356;-1.748;2024-03-06T05:11:29;13.60;;;10.50;;
69256;SDS011;56376;53.356;-1.748;2024-03-06T05:13:59;13.33;;;10.57;;
69256;SDS011;56376;53.356;-1.748;2024-03-06T05:16:25;15.53;;;11.27;;
69256;SDS011;56376;53.356;-1.748;2024-03-06T05:18:51;16.33;;;11.67;;
69256;SDS011;56376;53.356;-1.748;2024-03-06T05:21:17;16.27;;;12.00;;
69256;SDS011;56376;53.356;-1.748;2024-03-06T05:23:45;13.60;;;10.43;;
69256;SDS011;56376;53.356;-1.748;2024-03-06T05:26:10;17.47;;;12.53;;
69256;SDS011;56376;53.356;-1.748;2024-03-06T05:28:36;15.30;;;11.10;;
69256;SDS011;56376;53.356;-1.748;2024-03-06T05:31:13;14.33;;;10.03;;
69256;SDS011;56376;53.356;-1.748;2024-03-06T05:33:42;12.97;;;9.80;;
69256;SDS011;56376;53.356;-1.748;2024-03-06T05:36:08;14.57;;;10.87;;
69256;SDS011;56376;53.356;-1.748;2024-03-06T05:38:34;15.17;;;11.53;;
69256;SDS011;56376;53.356;-1.748;2024-03-06T05:40:59;15.77;;;12.13;;
69256;SDS011;56376;53.356;-1.748;2024-03-06T05:43:25;15.67;;;11.30;;
69256;SDS011;56376;53.356;-1.748;2024-03-06T05:45:52;17.33;;;12.47;;
69256;SDS011;56376;53.356;-1.748;2024-03-06T05:48:18;15.87;;;11.40;;
69256;SDS011;56376;53.356;-1.748;2024-03-06T05:50:44;15.67;;;10.97;;
69256;SDS011;56376;53.356;-1.748;2024-03-06T05:53:09;15.77;;;11.67;;
69256;SDS011;56376;53.356;-1.748;2024-03-06T05:55:36;14.63;;;10.57;;
69256;SDS011;56376;53.356;-1.748;2024-03-06T05:58:02;18.60;;;13.27;;
69256;SDS011;56376;53.356;-1.748;2024-03-06T06:00:27;17.03;;;12.60;;
69256;SDS011;56376;53.356;-1.748;2024-03-06T06:02:53;14.17;;;10.83;;
69256;SDS011;56376;53.356;-1.748;2024-03-06T06:05:18;15.37;;;11.03;;
69256;SDS011;56376;53.356;-1.748;2024-03-06T06:07:45;14.40;;;10.60;;
69256;SDS011;56376;53.356;-1.748;2024-03-06T06:10:11;16.37;;;11.50;;
69256;SDS011;56376;53.356;-1.748;2024-03-06T06:12:36;14.67;;;10.23;;
69256;SDS011;56376;53.356;-1.748;2024-03-06T06:15:03;16.20;;;12.03;;
69256;SDS011;56376;53.356;-1.748;2024-03-06T06:17:29;17.40;;;12.20;;
69256;SDS011;56376;53.356;-1.748;2024-03-06T06:19:54;16.17;;;11.07;;
69256;SDS011;56376;53.356;-1.748;2024-03-06T06:22:20;18.10;;;12.13;;
69256;SDS011;56376;53.356;-1.748;2024-03-06T06:24:45;13.83;;;10.57;;
69256;SDS011;56376;53.356;-1.748;2024-03-06T06:27:11;15.97;;;11.50;;
69256;SDS011;56376;53.356;-1.748;2024-03-06T06:29:36;15.70;;;11.07;;
69256;SDS011;56376;53.356;-1.748;2024-03-06T06:32:02;14.90;;;10.67;;
69256;SDS011;56376;53.356;-1.748;2024-03-06T06:34:27;15.37;;;11.20;;
69256;SDS011;56376;53.356;-1.748;2024-03-06T06:36:53;14.13;;;11.20;;
69256;SDS011;56376;53.356;-1.748;2024-03-06T06:39:19;15.17;;;10.90;;
69256;SDS011;56376;53.356;-1.748;2024-03-06T06:41:44;13.83;;;10.23;;
69256;SDS011;56376;53.356;-1.748;2024-03-06T06:44:10;12.83;;;9.87;;
69256;SDS011;56376;53.356;-1.748;2024-03-06T06:46:36;15.40;;;11.13;;
69256;SDS011;56376;53.356;-1.748;2024-03-06T06:49:01;13.07;;;10.43;;
69256;SDS011;56376;53.356;-1.748;2024-03-06T06:51:26;13.20;;;9.83;;
69256;SDS011;56376;53.356;-1.748;2024-03-06T06:53:54;13.57;;;10.40;;
69256;SDS011;56376;53.356;-1.748;2024-03-06T06:56:20;12.07;;;9.63;;
69256;SDS011;56376;53.356;-1.748;2024-03-06T06:58:49;12.87;;;9.47;;
69256;SDS011;56376;53.356;-1.748;2024-03-06T07:01:15;11.37;;;8.93;;
69256;SDS011;56376;53.356;-1.748;2024-03-06T07:03:43;11.87;;;8.83;;
69256;SDS011;56376;53.356;-1.748;2024-03-06T07:06:08;13.87;;;10.00;;
69256;SDS011;56376;53.356;-1.748;2024-03-06T07:08:34;13.53;;;10.13;;
69256;SDS011;56376;53.356;-1.748;2024-03-06T07:10:59;12.07;;;8.83;;
69256;SDS011;56376;53.356;-1.748;2024-03-06T07:13:25;10.33;;;8.37;;
69256;SDS011;56376;53.356;-1.748;2024-03-06T07:15:51;12.63;;;9.10;;
69256;SDS011;56376;53.356;-1.748;2024-03-06T07:18:16;12.17;;;10.10;;
69256;SDS011;56376;53.356;-1.748;2024-03-06T07:20:41;13.50;;;9.67;;
69256;SDS011;56376;53.356;-1.748;2024-03-06T07:23:07;13.40;;;10.07;;
69256;SDS011;56376;53.356;-1.748;2024-03-06T07:25:32;14.23;;;11.17;;
69256;SDS011;56376;53.356;-1.748;2024-03-06T07:27:58;13.83;;;10.37;;
69256;SDS011;56376;53.356;-1.748;2024-03-06T07:30:23;16.87;;;11.50;;
69256;SDS011;56376;53.356;-1.748;2024-03-06T07:32:49;14.13;;;10.73;;
69256;SDS011;56376;53.356;-1.748;2024-03-06T07:35:14;15.37;;;11.40;;
69256;SDS011;56376;53.356;-1.748;2024-03-06T07:37:40;17.37;;;12.47;;
69256;SDS011;56376;53.356;-1.748;2024-03-06T07:40:06;16.27;;;11.83;;
69256;SDS011;56376;53.356;-1.748;2024-03-06T07:42:34;15.40;;;11.37;;
69256;SDS011;56376;53.356;-1.748;2024-03-06T07:45:00;13.77;;;10.83;;
69256;SDS011;56376;53.356;-1.748;2024-03-06T07:47:29;13.90;;;10.60;;
69256;SDS011;56376;53.356;-1.748;2024-03-06T07:49:54;17.23;;;10.90;;
69256;SDS011;56376;53.356;-1.748;2024-03-06T07:52:20;13.97;;;9.80;;
69256;SDS011;56376;53.356;-1.748;2024-03-06T07:54:46;15.00;;;11.03;;
69256;SDS011;56376;53.356;-1.748;2024-03-06T07:57:12;13.40;;;10.57;;
69256;SDS011;56376;53.356;-1.748;2024-03-06T07:59:37;13.20;;;9.50;;
69256;SDS011;56376;53.356;-1.748;2024-03-06T08:02:02;15.23;;;10.30;;
69256;SDS011;56376;53.356;-1.748;2024-03-06T08:04:31;16.07;;;11.00;;
69256;SDS011;56376;53.356;-1.748;2024-03-06T08:06:56;14.60;;;10.50;;
69256;SDS011;56376;53.356;-1.748;2024-03-06T08:09:23;14.20;;;11.00;;
69256;SDS011;56376;53.356;-1.748;2024-03-06T08:11:49;14.77;;;10.97;;
69256;SDS011;56376;53.356;-1.748;2024-03-06T08:14:14;16.10;;;11.97;;
69256;SDS011;56376;53.356;-1.748;2024-03-06T08:16:42;15.40;;;10.67;;
69256;SDS011;56376;53.356;-1.748;2024-03-06T08:19:07;16.00;;;10.47;;
69256;SDS011;56376;53.356;-1.748;2024-03-06T08:21:33;16.53;;;11.13;;
69256;SDS011;56376;53.356;-1.748;2024-03-06T08:23:59;16.90;;;11.20;;
69256;SDS011;56376;53.356;-1.748;2024-03-06T08:26:25;14.40;;;11.70;;
69256;SDS011;56376;53.356;-1.748;2024-03-06T08:28:51;15.23;;;10.90;;
69256;SDS011;56376;53.356;-1.748;2024-03-06T08:31:17;14.57;;;10.63;;
69256;SDS011;56376;53.356;-1.748;2024-03-06T08:33:44;14.80;;;10.97;;
69256;SDS011;56376;53.356;-1.748;2024-03-06T08:36:09;14.87;;;10.63;;
69256;SDS011;56376;53.356;-1.748;2024-03-06T08:38:35;17.87;;;11.53;;
69256;SDS011;56376;53.356;-1.748;2024-03-06T08:41:00;15.37;;;10.67;;
69256;SDS011;56376;53.356;-1.748;2024-03-06T08:43:28;16.57;;;11.10;;
69256;SDS011;56376;53.356;-1.748;2024-03-06T08:45:54;14.67;;;10.57;;
69256;SDS011;56376;53.356;-1.748;2024-03-06T08:48:20;15.17;;;10.87;;
69256;SDS011;56376;53.356;-1.748;2024-03-06T08:50:46;18.87;;;12.50;;
69256;SDS011;56376;53.356;-1.748;2024-03-06T08:53:12;18.37;;;12.10;;
69256;SDS011;56376;53.356;-1.748;2024-03-06T08:55:39;20.13;;;11.90;;
69256;SDS011;56376;53.356;-1.748;2024-03-06T08:58:04;23.47;;;13.10;;
69256;SDS011;56376;53.356;-1.748;2024-03-06T09:00:30;19.47;;;11.87;;
69256;SDS011;56376;53.356;-1.748;2024-03-06T09:05:24;19.17;;;12.43;;
69256;SDS011;56376;53.356;-1.748;2024-03-06T09:07:49;24.40;;;13.00;;
69256;SDS011;56376;53.356;-1.748;2024-03-06T09:10:15;22.50;;;13.10;;
69256;SDS011;56376;53.356;-1.748;2024-03-06T09:12:40;21.00;;;13.47;;
69256;SDS011;56376;53.356;-1.748;2024-03-06T09:15:06;23.33;;;13.93;;
69256;SDS011;56376;53.356;-1.748;2024-03-06T09:17:32;23.40;;;13.73;;
69256;SDS011;56376;53.356;-1.748;2024-03-06T09:19:58;25.50;;;13.60;;
69256;SDS011;56376;53.356;-1.748;2024-03-06T09:22:23;20.43;;;13.33;;
69256;SDS011;56376;53.356;-1.748;2024-03-06T09:24:49;25.47;;;13.90;;
69256;SDS011;56376;53.356;-1.748;2024-03-06T09:27:15;23.83;;;15.33;;
69256;SDS011;56376;53.356;-1.748;2024-03-06T09:29:42;24.23;;;13.50;;
69256;SDS011;56376;53.356;-1.748;2024-03-06T09:32:08;22.80;;;14.10;;
69256;SDS011;56376;53.356;-1.748;2024-03-06T09:34:34;23.20;;;13.73;;
69256;SDS011;56376;53.356;-1.748;2024-03-06T09:36:59;21.27;;;12.63;;
69256;SDS011;56376;53.356;-1.748;2024-03-06T09:39:25;32.40;;;15.47;;
69256;SDS011;56376;53.356;-1.748;2024-03-06T09:41:51;26.73;;;15.03;;
69256;SDS011;56376;53.356;-1.748;2024-03-06T09:44:19;28.63;;;15.07;;
69256;SDS011;56376;53.356;-1.748;2024-03-06T09:46:46;37.57;;;19.67;;
69256;SDS011;56376;53.356;-1.748;2024-03-06T09:49:17;39.03;;;20.77;;
69256;SDS011;56376;53.356;-1.748;2024-03-06T09:51:47;37.27;;;19.97;;
69256;SDS011;56376;53.356;-1.748;2024-03-06T09:54:17;40.17;;;20.50;;
69256;SDS011;56376;53.356;-1.748;2024-03-06T09:56:43;41.10;;;21.23;;
69256;SDS011;56376;53.356;-1.748;2024-03-06T09:59:10;39.73;;;19.63;;
69256;SDS011;56376;53.356;-1.748;2024-03-06T10:01:48;39.13;;;20.70;;
69256;SDS011;56376;53.356;-1.748;2024-03-06T10:06:50;35.95;;;19.92;;
69256;SDS011;56376;53.356;-1.748;2024-03-06T10:09:19;34.23;;;20.10;;
69256;SDS011;56376;53.356;-1.748;2024-03-06T10:11:46;29.57;;;19.07;;
69256;SDS011;56376;53.356;-1.748;2024-03-06T10:14:13;30.10;;;19.53;;
69256;SDS011;56376;53.356;-1.748;2024-03-06T10:16:58;37.53;;;22.07;;
69256;SDS011;56376;53.356;-1.748;2024-03-06T10:19:25;29.83;;;18.43;;
69256;SDS011;56376;53.356;-1.748;2024-03-06T10:21:58;32.30;;;19.87;;
69256;SDS011;56376;53.356;-1.748;2024-03-06T10:27:28;31.88;;;20.95;;
69256;SDS011;56376;53.356;-1.748;2024-03-06T10:30:00;30.23;;;19.53;;
69256;SDS011;56376;53.356;-1.748;2024-03-06T10:32:28;28.60;;;19.40;;
69256;SDS011;56376;53.356;-1.748;2024-03-06T10:34:56;27.50;;;19.03;;
69256;SDS011;56376;53.356;-1.748;2024-03-06T10:37:22;28.25;;;18.63;;
69256;SDS011;56376;53.356;-1.748;2024-03-06T10:39:49;31.17;;;20.43;;
69256;SDS011;56376;53.356;-1.748;2024-03-06T10:42:19;31.05;;;21.48;;
69256;SDS011;56376;53.356;-1.748;2024-03-06T10:44:54;31.90;;;21.33;;
69256;SDS011;56376;53.356;-1.748;2024-03-06T10:47:24;29.27;;;20.20;;
69256;SDS011;56376;53.356;-1.748;2024-03-06T10:49:51;32.53;;;20.73;;
69256;SDS011;56376;53.356;-1.748;2024-03-06T10:52:19;29.77;;;19.45;;
69256;SDS011;56376;53.356;-1.748;2024-03-06T10:54:45;27.83;;;18.80;;
69256;SDS011;56376;53.356;-1.748;2024-03-06T10:57:12;29.45;;;19.65;;
69256;SDS011;56376;53.356;-1.748;2024-03-06T10:59:39;31.00;;;19.30;;
69256;SDS011;56376;53.356;-1.748;2024-03-06T11:02:07;27.48;;;18.65;;
69256;SDS011;56376;53.356;-1.748;2024-03-06T11:04:36;27.48;;;18.30;;
69256;SDS011;56376;53.356;-1.748;2024-03-06T11:07:05;24.30;;;16.77;;
69256;SDS011;56376;53.356;-1.748;2024-03-06T11:09:35;28.00;;;17.90;;
69256;SDS011;56376;53.356;-1.748;2024-03-06T11:12:01;24.20;;;16.17;;
69256;SDS011;56376;53.356;-1.748;2024-03-06T11:14:30;24.23;;;17.25;;
69256;SDS011;56376;53.356;-1.748;2024-03-06T11:16:57;22.33;;;16.33;;
69256;SDS011;56376;53.356;-1.748;2024-03-06T11:19:27;21.55;;;15.68;;
69256;SDS011;56376;53.356;-1.748;2024-03-06T11:21:54;19.38;;;14.10;;
69256;SDS011;56376;53.356;-1.748;2024-03-06T11:24:20;25.35;;;13.48;;
69256;SDS011;56376;53.356;-1.748;2024-03-06T11:26:47;18.50;;;13.40;;
69256;SDS011;56376;53.356;-1.748;2024-03-06T11:29:23;21.77;;;15.00;;
69256;SDS011;56376;53.356;-1.748;2024-03-06T11:32:03;19.27;;;13.82;;
69256;SDS011;56376;53.356;-1.748;2024-03-06T11:34:29;21.77;;;15.50;;
69256;SDS011;56376;53.356;-1.748;2024-03-06T11:36:57;21.83;;;14.75;;
69256;SDS011;56376;53.356;-1.748;2024-03-06T11:39:23;18.98;;;14.57;;
69256;SDS011;56376;53.356;-1.748;2024-03-06T11:41:50;17.67;;;13.70;;
69256;SDS011;56376;53.356;-1.748;2024-03-06T11:44:16;21.23;;;14.80;;
69256;SDS011;56376;53.356;-1.748;2024-03-06T11:46:46;21.13;;;14.05;;
69256;SDS011;56376;53.356;-1.748;2024-03-06T11:49:17;19.60;;;13.10;;
69256;SDS011;56376;53.356;-1.748;2024-03-06T11:51:56;18.25;;;13.43;;
69256;SDS011;56376;53.356;-1.748;2024-03-06T11:54:25;17.40;;;12.35;;
69256;SDS011;56376;53.356;-1.748;2024-03-06T11:56:52;18.38;;;13.75;;
69256;SDS011;56376;53.356;-1.748;2024-03-06T12:01:55;19.45;;;13.35;;
69256;SDS011;56376;53.356;-1.748;2024-03-06T12:04:24;20.10;;;12.82;;
69256;SDS011;56376;53.356;-1.748;2024-03-06T12:06:50;15.40;;;11.82;;
69256;SDS011;56376;53.356;-1.748;2024-03-06T12:09:16;16.02;;;11.23;;
69256;SDS011;56376;53.356;-1.748;2024-03-06T12:11:42;16.30;;;12.05;;
69256;SDS011;56376;53.356;-1.748;2024-03-06T12:14:17;15.70;;;11.93;;
69256;SDS011;56376;53.356;-1.748;2024-03-06T12:16:44;16.65;;;12.45;;
69256;SDS011;56376;53.356;-1.748;2024-03-06T12:19:20;16.02;;;11.48;;
69256;SDS011;56376;53.356;-1.748;2024-03-06T12:21:47;21.65;;;14.35;;
69256;SDS011;56376;53.356;-1.748;2024-03-06T12:24:15;16.00;;;12.43;;
69256;SDS011;56376;53.356;-1.748;2024-03-06T12:26:43;17.20;;;12.02;;
69256;SDS011;56376;53.356;-1.748;2024-03-06T12:29:09;13.82;;;10.95;;
69256;SDS011;56376;53.356;-1.748;2024-03-06T12:31:39;16.65;;;11.38;;
69256;SDS011;56376;53.356;-1.748;2024-03-06T12:34:13;15.07;;;11.13;;
69256;SDS011;56376;53.356;-1.748;2024-03-06T12:36:39;16.65;;;12.25;;
69256;SDS011;56376;53.356;-1.748;2024-03-06T12:39:05;18.08;;;12.15;;
69256;SDS011;56376;53.356;-1.748;2024-03-06T12:41:40;14.30;;;10.80;;
69256;SDS011;56376;53.356;-1.748;2024-03-06T12:44:07;18.33;;;11.52;;
69256;SDS011;56376;53.356;-1.748;2024-03-06T12:46:32;14.23;;;11.23;;
69256;SDS011;56376;53.356;-1.748;2024-03-06T12:48:58;12.32;;;9.35;;
69256;SDS011;56376;53.356;-1.748;2024-03-06T12:51:23;12.65;;;9.27;;
69256;SDS011;56376;53.356;-1.748;2024-03-06T12:53:49;13.43;;;9.00;;
69256;SDS011;56376;53.356;-1.748;2024-03-06T12:56:16;12.63;;;9.18;;
69256;SDS011;56376;53.356;-1.748;2024-03-06T12:58:42;13.95;;;9.32;;
69256;SDS011;56376;53.356;-1.748;2024-03-06T13:01:08;12.00;;;8.55;;
69256;SDS011;56376;53.356;-1.748;2024-03-06T13:03:34;12.55;;;8.73;;
69256;SDS011;56376;53.356;-1.748;2024-03-06T13:05:59;11.80;;;8.50;;
69256;SDS011;56376;53.356;-1.748;2024-03-06T13:08:25;11.65;;;7.88;;
69256;SDS011;56376;53.356;-1.748;2024-03-06T13:10:51;12.23;;;8.77;;
69256;SDS011;56376;53.356;-1.748;2024-03-06T13:13:17;12.82;;;8.70;;
69256;SDS011;56376;53.356;-1.748;2024-03-06T13:15:42;13.93;;;10.35;;
69256;SDS011;56376;53.356;-1.748;2024-03-06T13:18:09;14.55;;;11.05;;
69256;SDS011;56376;53.356;-1.748;2024-03-06T13:20:34;15.23;;;11.05;;
69256;SDS011;56376;53.356;-1.748;2024-03-06T13:23:01;13.27;;;9.90;;
69256;SDS011;56376;53.356;-1.748;2024-03-06T13:25:26;14.98;;;10.23;;
69256;SDS011;56376;53.356;-1.748;2024-03-06T13:27:52;16.48;;;11.38;;
69256;SDS011;56376;53.356;-1.748;2024-03-06T13:30:19;15.80;;;10.68;;
69256;SDS011;56376;53.356;-1.748;2024-03-06T13:32:45;18.30;;;12.88;;
69256;SDS011;56376;53.356;-1.748;2024-03-06T13:35:14;16.88;;;11.18;;
69256;SDS011;56376;53.356;-1.748;2024-03-06T13:37:40;14.50;;;10.18;;
69256;SDS011;56376;53.356;-1.748;2024-03-06T13:40:06;13.15;;;10.10;;
69256;SDS011;56376;53.356;-1.748;2024-03-06T13:42:34;12.90;;;9.95;;
69256;SDS011;56376;53.356;-1.748;2024-03-06T13:45:01;15.50;;;11.10;;
69256;SDS011;56376;53.356;-1.748;2024-03-06T13:47:27;15.98;;;11.55;;
69256;SDS011;56376;53.356;-1.748;2024-03-06T13:49:52;15.15;;;10.98;;
69256;SDS011;56376;53.356;-1.748;2024-03-06T13:52:18;15.93;;;11.75;;
69256;SDS011;56376;53.356;-1.748;2024-03-06T13:54:45;18.25;;;11.50;;
69256;SDS011;56376;53.356;-1.748;2024-03-06T13:57:13;15.65;;;12.23;;
69256;SDS011;56376;53.356;-1.748;2024-03-06T13:59:39;13.70;;;10.52;;
69256;SDS011;56376;53.356;-1.748;2024-03-06T14:02:05;12.70;;;10.25;;
69256;SDS011;56376;53.356;-1.748;2024-03-06T14:04:32;16.65;;;11.77;;
69256;SDS011;56376;53.356;-1.748;2024-03-06T14:06:57;15.35;;;10.60;;
69256;SDS011;56376;53.356;-1.748;2024-03-06T14:09:24;15.15;;;10.63;;
69256;SDS011;56376;53.356;-1.748;2024-03-06T14:11:50;13.73;;;10.30;;
69256;SDS011;56376;53.356;-1.748;2024-03-06T14:14:17;17.85;;;12.38;;
69256;SDS011;56376;53.356;-1.748;2024-03-06T14:16:44;16.77;;;12.15;;
69256;SDS011;56376;53.356;-1.748;2024-03-06T14:19:10;16.60;;;11.95;;
69256;SDS011;56376;53.356;-1.748;2024-03-06T14:21:36;15.45;;;11.18;;